createdAt,value
2018-10-07T00:00:23.325Z,25.63
2018-10-07T00:02:53.655Z,26.90
2018-10-07T00:05:24.020Z,27.93
2018-10-07T00:07:54.415Z,27.43
2018-10-07T00:10:24.771Z,30.97
2018-10-07T00:12:55.203Z,29.07
2018-10-07T00:15:25.558Z,28.63
2018-10-07T00:17:55.896Z,30.63
2018-10-07T00:20:26.247Z,33.23
2018-10-07T00:22:56.561Z,31.43
2018-10-07T00:25:26.907Z,31.30
2018-10-07T00:27:57.222Z,32.70
2018-10-07T00:30:27.699Z,31.17
2018-10-07T00:32:58.016Z,33.47
2018-10-07T00:35:28.446Z,31.80
2018-10-07T00:37:58.832Z,32.93
2018-10-07T00:40:29.165Z,33.33
2018-10-07T00:42:59.529Z,33.27
2018-10-07T00:45:30.863Z,32.83
2018-10-07T00:48:01.419Z,33.13
2018-10-07T00:50:31.741Z,33.43
2018-10-07T00:53:02.091Z,33.57
2018-10-07T00:55:32.685Z,33.30
2018-10-07T00:58:03.072Z,34.80
2018-10-07T01:00:33.436Z,33.73
2018-10-07T01:03:03.764Z,32.20
2018-10-07T01:05:34.067Z,34.77
2018-10-07T01:08:04.432Z,35.53
2018-10-07T01:10:34.789Z,36.67
2018-10-07T01:13:05.129Z,34.23
2018-10-07T01:15:35.439Z,37.20
2018-10-07T01:18:05.812Z,38.13
2018-10-07T01:20:36.181Z,35.90
2018-10-07T01:23:07.055Z,35.93
2018-10-07T01:25:37.435Z,36.83
2018-10-07T01:28:07.773Z,38.87
2018-10-07T01:30:38.142Z,38.17
2018-10-07T01:33:08.517Z,38.03
2018-10-07T01:35:38.890Z,40.13
2018-10-07T01:38:09.249Z,39.70
2018-10-07T01:40:39.612Z,41.93
2018-10-07T01:43:09.896Z,42.13
2018-10-07T01:45:40.251Z,40.80
2018-10-07T01:48:10.533Z,41.40
2018-10-07T01:50:40.924Z,41.80
2018-10-07T01:53:11.351Z,43.97
2018-10-07T01:55:41.694Z,44.00
2018-10-07T01:58:12.044Z,47.50
2018-10-07T02:00:42.373Z,45.27
2018-10-07T02:03:12.648Z,45.80
2018-10-07T02:05:43.038Z,46.37
2018-10-07T02:08:13.381Z,46.23
2018-10-07T02:10:43.682Z,45.83
2018-10-07T02:13:14.010Z,45.73
2018-10-07T02:15:44.384Z,46.87
2018-10-07T02:18:14.727Z,44.43
2018-10-07T02:20:45.138Z,48.03
2018-10-07T02:23:15.499Z,46.00
2018-10-07T02:25:45.859Z,45.27
2018-10-07T02:28:16.229Z,46.63
2018-10-07T02:30:46.543Z,45.00
2018-10-07T02:33:16.962Z,43.17
2018-10-07T02:35:47.293Z,44.57
2018-10-07T02:38:17.623Z,42.03
2018-10-07T02:40:47.875Z,42.37
2018-10-07T02:43:18.253Z,43.50
2018-10-07T02:45:48.558Z,43.47
2018-10-07T02:48:18.935Z,43.23
2018-10-07T02:50:49.295Z,41.43
2018-10-07T02:53:19.659Z,42.57
2018-10-07T02:55:50.224Z,41.90
2018-10-07T02:58:20.870Z,42.90
2018-10-07T03:00:51.212Z,43.67
2018-10-07T03:03:21.629Z,40.77
2018-10-07T03:05:51.977Z,39.23
2018-10-07T03:08:22.344Z,39.70
2018-10-07T03:10:52.694Z,40.67
2018-10-07T03:13:23.068Z,40.77
2018-10-07T03:15:53.404Z,40.60
2018-10-07T03:18:23.753Z,39.70
2018-10-07T03:20:54.078Z,34.30
2018-10-07T03:23:24.387Z,30.47
2018-10-07T03:25:54.747Z,27.13
2018-10-07T03:28:25.047Z,23.40
2018-10-07T03:30:55.496Z,22.30
2018-10-07T03:33:25.810Z,20.57
2018-10-07T03:35:56.098Z,19.67
2018-10-07T03:38:26.440Z,18.00
2018-10-07T03:40:57.091Z,16.57
2018-10-07T03:43:27.454Z,16.30
2018-10-07T03:45:57.776Z,15.30
2018-10-07T03:48:28.151Z,13.37
2018-10-07T03:50:58.532Z,12.17
2018-10-07T03:53:28.800Z,10.77
2018-10-07T03:55:59.193Z,10.53
2018-10-07T03:58:29.512Z,10.33
2018-10-07T04:00:59.943Z,9.60
2018-10-07T04:03:30.342Z,8.70
2018-10-07T04:06:00.671Z,8.30
2018-10-07T04:08:31.000Z,8.50
2018-10-07T04:11:01.334Z,8.13
2018-10-07T04:13:31.702Z,8.73
2018-10-07T04:16:02.005Z,8.57
2018-10-07T04:18:32.349Z,8.17
2018-10-07T04:21:02.691Z,7.70
2018-10-07T04:23:33.005Z,7.90
2018-10-07T04:26:03.301Z,8.30
2018-10-07T04:28:33.648Z,7.53
2018-10-07T04:31:03.927Z,7.23
2018-10-07T04:33:34.525Z,7.03
2018-10-07T04:36:04.859Z,6.67
2018-10-07T04:38:35.219Z,6.80
2018-10-07T04:41:05.530Z,7.87
2018-10-07T04:43:35.867Z,6.90
2018-10-07T04:46:06.512Z,7.37
2018-10-07T04:48:36.808Z,7.90
2018-10-07T04:51:07.458Z,7.50
2018-10-07T04:53:37.899Z,7.97
2018-10-07T04:56:08.267Z,7.40
2018-10-07T04:58:38.608Z,7.63
2018-10-07T05:01:08.963Z,6.70
2018-10-07T05:03:39.318Z,7.13
2018-10-07T05:06:09.739Z,6.93
2018-10-07T05:08:40.255Z,6.63
2018-10-07T05:11:10.786Z,6.47
2018-10-07T05:13:48.911Z,5.73
2018-10-07T05:16:35.356Z,6.60
2018-10-07T05:19:06.267Z,5.70
2018-10-07T05:21:36.613Z,5.13
2018-10-07T05:24:07.027Z,4.50
2018-10-07T05:26:37.431Z,4.80
2018-10-07T05:29:07.762Z,4.33
2018-10-07T05:31:38.100Z,4.27
2018-10-07T05:34:08.485Z,4.03
2018-10-07T05:36:38.829Z,4.13
2018-10-07T05:39:11.927Z,4.37
2018-10-07T05:41:42.232Z,4.17
2018-10-07T05:44:12.589Z,3.77
2018-10-07T05:46:42.877Z,3.67
2018-10-07T05:49:13.307Z,3.37
2018-10-07T05:51:43.560Z,3.20
2018-10-07T05:54:13.935Z,3.43
2018-10-07T05:56:44.271Z,3.10
2018-10-07T05:59:14.795Z,3.20
2018-10-07T06:01:46.179Z,3.30
2018-10-07T06:04:24.844Z,3.10
2018-10-07T06:06:57.559Z,2.80
2018-10-07T06:09:33.732Z,3.00
2018-10-07T06:12:04.239Z,3.00
2018-10-07T06:14:51.384Z,2.83
2018-10-07T06:17:21.710Z,2.70
2018-10-07T06:19:52.115Z,2.87
2018-10-07T06:22:22.848Z,2.87
2018-10-07T06:24:53.273Z,3.00
2018-10-07T06:27:23.693Z,3.27
2018-10-07T06:29:54.104Z,3.10
2018-10-07T06:32:24.464Z,2.80
2018-10-07T06:34:54.805Z,2.73
2018-10-07T06:37:25.107Z,2.80
2018-10-07T06:39:55.545Z,2.70
2018-10-07T06:42:25.923Z,2.80
2018-10-07T06:44:56.290Z,2.70
2018-10-07T06:47:26.644Z,2.40
2018-10-07T06:49:57.065Z,2.20
2018-10-07T06:52:27.408Z,2.20
2018-10-07T06:54:57.791Z,2.20
2018-10-07T06:57:28.369Z,1.97
2018-10-07T06:59:58.969Z,2.03
2018-10-07T07:02:29.507Z,2.03
2018-10-07T07:04:59.817Z,2.20
2018-10-07T07:07:30.167Z,2.13
2018-10-07T07:10:00.523Z,2.13
2018-10-07T07:12:45.608Z,2.13
2018-10-07T07:15:15.950Z,2.27
2018-10-07T07:17:46.336Z,2.90
2018-10-07T07:20:16.715Z,2.53
2018-10-07T07:22:47.027Z,2.20
2018-10-07T07:25:17.356Z,2.10
2018-10-07T07:27:47.727Z,2.50
2018-10-07T07:30:18.038Z,2.00
2018-10-07T07:32:48.356Z,2.33
2018-10-07T07:35:18.756Z,2.13
2018-10-07T07:37:49.218Z,2.30
2018-10-07T07:40:19.530Z,2.30
2018-10-07T07:42:49.933Z,1.70
2018-10-07T07:45:20.295Z,2.23
2018-10-07T07:47:50.662Z,2.40
2018-10-07T07:50:20.947Z,2.00
2018-10-07T07:52:51.483Z,1.67
2018-10-07T07:55:21.788Z,1.83
2018-10-07T07:57:52.141Z,1.77
2018-10-07T08:00:22.457Z,1.90
2018-10-07T08:02:52.775Z,2.20
2018-10-07T08:05:23.127Z,1.80
2018-10-07T08:07:53.564Z,1.70
2018-10-07T08:10:23.894Z,1.60
2018-10-07T08:12:54.271Z,1.50
2018-10-07T08:15:24.678Z,1.57
2018-10-07T08:17:55.138Z,1.60
2018-10-07T08:20:25.326Z,1.40
2018-10-07T08:22:55.623Z,1.60
2018-10-07T08:25:25.878Z,1.57
2018-10-07T08:27:56.276Z,1.70
2018-10-07T08:30:26.595Z,1.90
2018-10-07T08:32:56.954Z,1.60
2018-10-07T08:35:27.261Z,1.63
2018-10-07T08:37:57.602Z,1.70
2018-10-07T08:40:27.922Z,1.70
2018-10-07T08:42:58.243Z,1.57
2018-10-07T08:45:28.584Z,1.87
2018-10-07T08:47:58.975Z,1.77
2018-10-07T08:50:29.336Z,1.03
2018-10-07T08:52:59.659Z,0.90
2018-10-07T08:55:29.963Z,0.90
2018-10-07T08:58:00.283Z,0.80
2018-10-07T09:00:30.688Z,1.10
2018-10-07T09:03:01.050Z,0.90
2018-10-07T09:05:31.466Z,0.90
2018-10-07T09:08:01.916Z,1.50
2018-10-07T09:10:32.251Z,4.40
2018-10-07T09:13:02.634Z,3.43
2018-10-07T09:15:33.046Z,1.23
2018-10-07T09:18:03.385Z,0.67
2018-10-07T09:20:33.763Z,0.80
2018-10-07T09:23:04.175Z,0.70
2018-10-07T09:25:34.643Z,1.00
2018-10-07T09:28:05.125Z,0.70
2018-10-07T09:30:37.287Z,0.90
2018-10-07T09:33:07.546Z,0.80
2018-10-07T09:35:37.939Z,0.80
2018-10-07T09:38:08.319Z,0.70
2018-10-07T09:40:38.679Z,0.73
2018-10-07T09:43:08.952Z,0.77
2018-10-07T09:45:39.265Z,0.70
2018-10-07T09:48:09.722Z,0.60
2018-10-07T09:50:40.094Z,0.80
2018-10-07T09:53:10.478Z,0.50
2018-10-07T09:55:40.833Z,0.63
2018-10-07T09:58:11.253Z,0.90
2018-10-07T10:00:42.343Z,0.70
2018-10-07T10:03:12.963Z,0.60
2018-10-07T10:05:43.367Z,0.80
2018-10-07T10:08:13.664Z,0.80
2018-10-07T10:10:44.004Z,0.70
2018-10-07T10:13:14.379Z,0.57
2018-10-07T10:15:44.671Z,0.50
2018-10-07T10:18:51.201Z,0.63
2018-10-07T10:21:38.776Z,0.60
2018-10-07T10:27:26.243Z,0.60
2018-10-07T10:30:07.941Z,0.50
2018-10-07T10:32:55.003Z,0.60
2018-10-07T10:35:38.891Z,0.63
2018-10-07T10:38:25.598Z,0.60
2018-10-07T10:41:11.484Z,0.80
2018-10-07T10:43:57.210Z,0.80
2018-10-07T10:46:39.293Z,1.10
2018-10-07T10:49:21.022Z,1.30
2018-10-07T10:52:20.845Z,1.20
2018-10-07T10:54:58.861Z,1.13
2018-10-07T10:57:41.772Z,1.03
2018-10-07T11:00:50.939Z,1.10
2018-10-07T11:04:33.300Z,1.00
2018-10-07T11:07:25.180Z,0.90
2018-10-07T11:10:11.353Z,0.80
2018-10-07T11:12:55.931Z,0.80
2018-10-07T11:15:39.856Z,0.60
2018-10-07T11:19:29.666Z,0.70
2018-10-07T11:22:17.084Z,0.93
2018-10-07T11:26:04.848Z,0.80
2018-10-07T11:31:04.131Z,0.60
2018-10-07T11:34:16.277Z,0.63
2018-10-07T11:37:23.908Z,0.50
2018-10-07T11:40:11.266Z,0.77
2018-10-07T11:42:50.062Z,0.63
2018-10-07T11:45:31.870Z,0.60
2018-10-07T11:49:15.199Z,1.30
2018-10-07T11:51:58.847Z,0.93
2018-10-07T11:55:02.095Z,1.07
2018-10-07T11:57:32.397Z,0.80
2018-10-07T12:00:03.236Z,0.93
2018-10-07T12:02:33.565Z,0.70
2018-10-07T12:05:03.911Z,0.73
2018-10-07T12:07:34.304Z,0.90
2018-10-07T12:10:04.795Z,0.70
2018-10-07T12:12:35.076Z,0.90
2018-10-07T12:15:05.651Z,0.80
2018-10-07T12:17:36.032Z,0.90
2018-10-07T12:20:06.663Z,1.00
2018-10-07T12:22:36.985Z,0.50
2018-10-07T12:25:07.394Z,0.50
2018-10-07T12:27:37.731Z,0.50
2018-10-07T12:30:08.182Z,1.50
2018-10-07T12:32:38.556Z,0.60
2018-10-07T12:35:08.967Z,0.40
2018-10-07T12:37:39.293Z,0.67
2018-10-07T12:40:09.765Z,0.60
2018-10-07T12:42:40.116Z,0.50
2018-10-07T12:45:10.484Z,0.57
2018-10-07T12:47:40.853Z,0.90
2018-10-07T12:50:11.187Z,0.90
2018-10-07T12:52:42.363Z,0.67
2018-10-07T12:55:12.676Z,0.77
2018-10-07T12:57:43.046Z,0.80
2018-10-07T13:00:13.388Z,0.60
2018-10-07T13:02:43.729Z,0.70
2018-10-07T13:05:14.043Z,0.63
2018-10-07T13:07:44.380Z,0.60
2018-10-07T13:10:14.737Z,0.70
2018-10-07T13:12:45.052Z,0.60
2018-10-07T13:15:15.466Z,0.67
2018-10-07T13:17:45.812Z,0.50
2018-10-07T13:20:16.173Z,0.60
2018-10-07T13:22:46.545Z,0.73
2018-10-07T13:25:16.926Z,1.13
2018-10-07T13:27:47.283Z,1.30
2018-10-07T13:30:17.640Z,1.20
2018-10-07T13:32:47.945Z,0.67
2018-10-07T13:35:18.288Z,0.60
2018-10-07T13:37:48.598Z,0.70
2018-10-07T13:40:18.923Z,0.50
2018-10-07T13:42:49.231Z,0.70
2018-10-07T13:45:19.588Z,0.70
2018-10-07T13:47:49.974Z,0.50
2018-10-07T13:50:20.272Z,0.63
2018-10-07T13:52:50.559Z,0.80
2018-10-07T13:55:20.905Z,0.50
2018-10-07T13:57:51.231Z,0.60
2018-10-07T14:00:21.513Z,0.70
2018-10-07T14:02:51.884Z,0.50
2018-10-07T14:07:59.860Z,0.57
2018-10-07T14:10:30.157Z,0.70
2018-10-07T14:13:00.459Z,0.60
2018-10-07T14:15:30.780Z,0.60
2018-10-07T14:18:01.049Z,0.50
2018-10-07T14:20:31.407Z,0.40
2018-10-07T14:23:01.781Z,0.50
2018-10-07T14:25:32.166Z,0.47
2018-10-07T14:28:02.531Z,0.60
2018-10-07T14:30:32.875Z,0.60
2018-10-07T14:33:03.212Z,0.60
2018-10-07T14:35:33.569Z,0.50
2018-10-07T14:38:03.952Z,0.50
2018-10-07T14:40:34.224Z,0.60
2018-10-07T14:43:04.630Z,0.50
2018-10-07T14:45:34.936Z,0.50
2018-10-07T14:48:05.259Z,0.40
2018-10-07T14:50:35.619Z,0.60
2018-10-07T14:53:06.188Z,0.43
2018-10-07T14:55:36.518Z,0.60
2018-10-07T14:58:07.284Z,0.50
2018-10-07T15:00:37.712Z,0.90
2018-10-07T15:03:08.055Z,1.10
2018-10-07T15:05:38.355Z,0.70
2018-10-07T15:08:08.698Z,1.30
2018-10-07T15:10:39.049Z,1.10
2018-10-07T15:13:09.380Z,0.90
2018-10-07T15:15:39.704Z,0.70
2018-10-07T15:18:10.001Z,0.60
2018-10-07T15:20:40.343Z,0.50
2018-10-07T15:23:10.622Z,0.70
2018-10-07T15:25:40.930Z,0.60
2018-10-07T15:28:11.279Z,0.70
2018-10-07T15:30:41.613Z,0.70
2018-10-07T15:33:11.932Z,0.83
2018-10-07T15:35:42.321Z,0.67
2018-10-07T15:38:12.670Z,0.73
2018-10-07T15:40:42.984Z,0.60
2018-10-07T15:43:13.362Z,0.90
2018-10-07T15:45:43.779Z,0.80
2018-10-07T15:48:14.128Z,1.20
2018-10-07T15:50:44.447Z,1.03
2018-10-07T15:53:14.806Z,1.07
2018-10-07T15:55:45.126Z,1.20
2018-10-07T15:58:15.464Z,2.30
2018-10-07T16:00:45.781Z,1.60
2018-10-07T16:03:16.095Z,3.10
2018-10-07T16:05:46.465Z,2.80
2018-10-07T16:08:16.865Z,4.37
2018-10-07T16:10:47.276Z,4.37
2018-10-07T16:13:17.587Z,2.10
2018-10-07T16:15:47.897Z,1.70
2018-10-07T16:18:18.291Z,1.20
2018-10-07T16:20:48.614Z,1.50
2018-10-07T16:23:19.123Z,1.03
2018-10-07T16:25:49.580Z,1.10
2018-10-07T16:28:19.992Z,0.87
2018-10-07T16:30:50.662Z,1.10
2018-10-07T16:33:21.151Z,0.87
2018-10-07T16:35:51.541Z,1.10
2018-10-07T16:38:21.901Z,0.97
2018-10-07T16:40:52.323Z,1.10
2018-10-07T16:43:22.688Z,1.17
2018-10-07T16:45:53.049Z,0.80
2018-10-07T16:48:23.396Z,1.00
2018-10-07T16:50:53.743Z,0.80
2018-10-07T16:53:24.116Z,1.20
2018-10-07T16:55:54.446Z,1.20
2018-10-07T16:58:24.787Z,0.70
2018-10-07T17:00:55.128Z,1.20
2018-10-07T17:03:25.477Z,1.00
2018-10-07T17:05:55.860Z,1.47
2018-10-07T17:08:26.184Z,1.10
2018-10-07T17:10:56.504Z,1.20
2018-10-07T17:13:26.917Z,0.87
2018-10-07T17:15:57.193Z,0.80
2018-10-07T17:18:27.519Z,1.30
2018-10-07T17:20:57.917Z,0.90
2018-10-07T17:23:28.210Z,1.00
2018-10-07T17:25:58.549Z,0.90
2018-10-07T17:28:28.849Z,0.90
2018-10-07T17:30:59.194Z,0.83
2018-10-07T17:33:29.563Z,1.80
2018-10-07T17:36:00.628Z,1.80
2018-10-07T17:38:30.995Z,1.40
2018-10-07T17:41:01.352Z,1.20
2018-10-07T17:43:31.669Z,1.07
2018-10-07T17:46:02.055Z,3.90
2018-10-07T17:48:32.422Z,3.30
2018-10-07T17:51:02.700Z,1.73
2018-10-07T17:53:32.995Z,1.97
2018-10-07T17:56:03.349Z,1.70
2018-10-07T17:58:33.666Z,1.87
2018-10-07T18:01:04.039Z,2.20
2018-10-07T18:03:34.395Z,1.73
2018-10-07T18:06:04.735Z,1.70
2018-10-07T18:08:35.117Z,1.60
2018-10-07T18:11:05.541Z,1.20
2018-10-07T18:14:06.549Z,1.87
2018-10-07T18:16:36.906Z,3.33
2018-10-07T18:19:07.320Z,2.10
2018-10-07T18:21:37.681Z,2.00
2018-10-07T18:24:08.064Z,2.57
2018-10-07T18:26:38.430Z,2.03
2018-10-07T18:29:08.837Z,2.13
2018-10-07T18:31:39.179Z,1.37
2018-10-07T18:34:09.548Z,1.63
2018-10-07T18:36:39.957Z,1.50
2018-10-07T18:39:10.278Z,1.30
2018-10-07T18:41:40.980Z,1.30
2018-10-07T18:44:11.333Z,1.43
2018-10-07T18:46:41.669Z,1.37
2018-10-07T18:49:12.075Z,1.70
2018-10-07T18:51:42.482Z,2.77
2018-10-07T18:54:12.836Z,3.60
2018-10-07T18:56:43.154Z,2.80
2018-10-07T18:59:13.540Z,2.40
2018-10-07T19:01:43.890Z,2.40
2018-10-07T19:04:14.896Z,1.90
2018-10-07T19:06:45.560Z,2.00
2018-10-07T19:09:15.909Z,1.90
2018-10-07T19:11:46.303Z,1.60
2018-10-07T19:14:16.678Z,2.00
2018-10-07T19:16:46.973Z,2.07
2018-10-07T19:19:17.336Z,2.17
2018-10-07T19:21:47.632Z,1.90
2018-10-07T19:24:17.995Z,1.60
2018-10-07T19:26:48.317Z,2.47
2018-10-07T19:29:18.633Z,1.50
2018-10-07T19:31:48.987Z,2.37
2018-10-07T19:34:19.344Z,1.67
2018-10-07T19:36:49.676Z,1.93
2018-10-07T19:39:20.060Z,1.60
2018-10-07T19:41:50.390Z,1.70
2018-10-07T19:44:20.765Z,2.07
2018-10-07T19:46:51.079Z,1.70
2018-10-07T19:49:21.384Z,1.73
2018-10-07T19:51:51.728Z,2.00
2018-10-07T19:54:22.165Z,1.97
2018-10-07T19:56:52.507Z,1.60
2018-10-07T19:59:22.965Z,1.70
2018-10-07T20:01:53.279Z,1.53
2018-10-07T20:04:23.651Z,1.50
2018-10-07T20:06:53.977Z,2.13
2018-10-07T20:09:24.286Z,1.90
2018-10-07T20:11:54.586Z,2.20
2018-10-07T20:14:24.962Z,2.10
2018-10-07T20:16:55.272Z,1.70
2018-10-07T20:19:25.725Z,1.80
2018-10-07T20:21:55.960Z,1.87
2018-10-07T20:24:26.287Z,1.93
2018-10-07T20:26:56.691Z,1.97
2018-10-07T20:29:27.025Z,1.73
2018-10-07T20:31:57.304Z,1.57
2018-10-07T20:34:27.651Z,1.80
2018-10-07T20:36:58.077Z,1.90
2018-10-07T20:39:28.371Z,1.97
2018-10-07T20:41:58.719Z,2.00
2018-10-07T20:44:29.070Z,1.60
2018-10-07T20:46:59.380Z,1.87
2018-10-07T20:49:29.712Z,1.80
2018-10-07T20:52:00.106Z,1.80
2018-10-07T20:54:30.518Z,1.60
2018-10-07T20:57:01.199Z,1.77
2018-10-07T20:59:31.475Z,1.70
2018-10-07T21:02:01.817Z,1.90
2018-10-07T21:04:32.240Z,1.60
2018-10-07T21:07:02.614Z,1.70
2018-10-07T21:09:32.959Z,1.43
2018-10-07T21:12:03.321Z,1.53
2018-10-07T21:14:33.751Z,1.80
2018-10-07T21:17:04.416Z,1.77
2018-10-07T21:19:34.840Z,1.67
2018-10-07T21:22:05.195Z,2.03
2018-10-07T21:24:35.584Z,1.70
2018-10-07T21:27:06.037Z,1.83
2018-10-07T21:29:36.483Z,1.57
2018-10-07T21:32:06.887Z,1.73
2018-10-07T21:34:37.226Z,2.23
2018-10-07T21:37:07.889Z,1.97
2018-10-07T21:39:38.238Z,1.90
2018-10-07T21:42:09.056Z,1.70
2018-10-07T21:44:39.777Z,2.13
2018-10-07T21:47:10.383Z,2.00
2018-10-07T21:49:41.112Z,2.03
2018-10-07T21:52:11.886Z,1.93
2018-10-07T21:54:42.543Z,1.67
2018-10-07T21:57:13.941Z,1.53
2018-10-07T21:59:44.706Z,1.80
2018-10-07T22:02:15.370Z,1.70
2018-10-07T22:04:46.060Z,2.17
2018-10-07T22:07:19.909Z,1.97
2018-10-07T22:09:50.688Z,2.10
2018-10-07T22:12:21.340Z,1.90
2018-10-07T22:14:51.965Z,1.73
2018-10-07T22:17:22.603Z,2.00
2018-10-07T22:19:53.255Z,2.00
2018-10-07T22:22:23.943Z,1.90
2018-10-07T22:24:54.559Z,1.80
2018-10-07T22:27:25.230Z,2.00
2018-10-07T22:29:55.871Z,2.40
2018-10-07T22:32:26.524Z,2.00
2018-10-07T22:34:57.139Z,2.43
2018-10-07T22:37:27.761Z,2.10
2018-10-07T22:39:58.367Z,2.47
2018-10-07T22:42:29.048Z,2.40
2018-10-07T22:44:59.637Z,2.60
2018-10-07T22:47:30.279Z,2.13
2018-10-07T22:50:00.936Z,2.70
2018-10-07T22:52:31.549Z,2.47
2018-10-07T22:55:02.180Z,2.10
2018-10-07T22:57:32.795Z,2.30
2018-10-07T23:00:03.434Z,2.20
2018-10-07T23:02:34.080Z,2.40
2018-10-07T23:05:05.500Z,2.33
2018-10-07T23:07:36.328Z,2.50
2018-10-07T23:10:07.249Z,2.33
2018-10-07T23:12:37.925Z,2.30
2018-10-07T23:15:08.626Z,2.57
2018-10-07T23:17:39.252Z,2.43
2018-10-07T23:20:10.005Z,2.50
2018-10-07T23:22:40.972Z,2.70
2018-10-07T23:25:11.663Z,2.43
2018-10-07T23:27:42.282Z,2.20
2018-10-07T23:30:12.913Z,2.20
2018-10-07T23:32:43.527Z,2.40
2018-10-07T23:35:14.246Z,2.27
2018-10-07T23:37:44.871Z,2.30
2018-10-07T23:40:15.583Z,2.43
2018-10-07T23:42:46.212Z,2.30
2018-10-07T23:45:16.856Z,2.23
2018-10-07T23:47:47.544Z,2.33
2018-10-07T23:50:18.212Z,2.23
2018-10-07T23:52:48.899Z,2.00
2018-10-07T23:55:19.521Z,2.13
2018-10-07T23:57:50.204Z,2.47
